createdAt,value
2019-05-11T00:00:07.572Z,72.52
2019-05-11T00:01:07.573Z,72.52
2019-05-11T00:02:07.540Z,72.62
2019-05-11T00:03:07.530Z,72.92
2019-05-11T00:04:07.511Z,73.36
2019-05-11T00:05:07.499Z,73.13
2019-05-11T00:06:07.489Z,72.92
2019-05-11T00:07:07.485Z,72.72
2019-05-11T00:08:07.462Z,73.33
2019-05-11T00:09:07.465Z,73.06
2019-05-11T00:10:07.437Z,73.16
2019-05-11T00:11:07.455Z,73.16
2019-05-11T00:12:07.419Z,73.16
2019-05-11T00:13:07.413Z,72.75
2019-05-11T00:14:07.435Z,73.50
2019-05-11T00:15:07.405Z,72.99
2019-05-11T00:16:07.378Z,73.30
2019-05-11T00:17:07.361Z,73.10
2019-05-11T00:18:07.391Z,73.40
2019-05-11T00:19:07.373Z,73.30
2019-05-11T00:20:07.665Z,73.10
2019-05-11T00:21:07.325Z,73.61
2019-05-11T00:22:07.316Z,73.91
2019-05-11T00:23:07.295Z,73.71
2019-05-11T00:24:07.294Z,73.61
2019-05-11T00:25:07.273Z,73.71
2019-05-11T00:26:07.276Z,74.02
2019-05-11T00:27:07.273Z,74.53
2019-05-11T00:28:07.284Z,74.36
2019-05-11T00:29:07.231Z,74.66
2019-05-11T00:30:07.227Z,74.46
2019-05-11T00:31:07.212Z,74.77
2019-05-11T00:32:07.198Z,74.97
2019-05-11T00:33:07.191Z,74.77
2019-05-11T00:34:07.179Z,74.87
2019-05-11T00:35:07.168Z,74.77
2019-05-11T00:36:07.182Z,74.80
2019-05-11T00:37:07.152Z,75.18
2019-05-11T00:38:07.126Z,75.18
2019-05-11T00:39:07.142Z,75.42
2019-05-11T00:40:14.393Z,75.21
2019-05-11T00:41:08.094Z,75.42
2019-05-11T00:42:07.120Z,75.82
2019-05-11T00:43:07.078Z,75.69
2019-05-11T00:44:07.061Z,75.82
2019-05-11T00:45:07.086Z,75.69
2019-05-11T00:46:07.052Z,75.62
2019-05-11T00:47:07.038Z,76.14
2019-05-11T00:48:07.014Z,76.24
2019-05-11T00:49:07.032Z,75.82
2019-05-11T00:50:07.008Z,76.14
2019-05-11T00:51:06.987Z,76.14
2019-05-11T00:52:06.978Z,76.24
2019-05-11T00:53:06.990Z,76.14
2019-05-11T00:54:06.948Z,76.54
2019-05-11T00:55:07.007Z,76.44
2019-05-11T00:56:06.935Z,76.54
2019-05-11T00:57:06.919Z,76.48
2019-05-11T00:58:06.927Z,76.75
2019-05-11T00:59:20.903Z,76.75
2019-05-11T01:00:07.895Z,76.54
2019-05-11T01:01:06.881Z,76.44
2019-05-11T01:02:06.866Z,76.34
2019-05-11T01:03:06.855Z,76.34
2019-05-11T01:04:06.854Z,76.34
2019-05-11T01:05:06.880Z,76.34
2019-05-11T01:06:06.820Z,76.54
2019-05-11T01:07:06.840Z,76.75
2019-05-11T01:08:06.796Z,77.06
2019-05-11T01:09:06.794Z,77.16
2019-05-11T01:10:06.774Z,77.06
2019-05-11T01:11:06.764Z,76.85
2019-05-11T01:12:06.752Z,77.06
2019-05-11T01:13:06.734Z,76.95
2019-05-11T01:14:06.738Z,77.06
2019-05-11T01:15:06.759Z,77.50
2019-05-11T01:16:06.748Z,77.20
2019-05-11T01:17:06.694Z,77.71
2019-05-11T01:18:06.684Z,78.02
2019-05-11T01:19:06.686Z,78.53
2019-05-11T01:20:06.666Z,77.95
2019-05-11T01:21:06.663Z,78.22
2019-05-11T01:22:06.824Z,78.12
2019-05-11T01:23:06.625Z,78.56
2019-05-11T01:24:06.618Z,79.08
2019-05-11T01:25:06.600Z,78.46
2019-05-11T01:26:06.605Z,79.08
2019-05-11T01:27:06.578Z,79.18
2019-05-11T01:28:06.635Z,78.87
2019-05-11T01:29:06.562Z,78.87
2019-05-11T01:30:06.556Z,78.56
2019-05-11T01:31:06.543Z,79.18
2019-05-11T01:32:06.550Z,78.63
2019-05-11T01:33:06.557Z,79.28
2019-05-11T01:34:06.531Z,78.77
2019-05-11T01:35:06.497Z,78.97
2019-05-11T01:36:06.495Z,78.77
2019-05-11T01:37:06.501Z,79.28
2019-05-11T01:38:06.494Z,79.28
2019-05-11T01:39:06.464Z,78.87
2019-05-11T01:40:06.473Z,79.38
2019-05-11T01:41:06.446Z,79.28
2019-05-11T01:42:06.417Z,79.08
2019-05-11T01:43:06.437Z,79.28
2019-05-11T01:44:06.393Z,78.70
2019-05-11T01:45:06.389Z,79.49
2019-05-11T01:46:06.376Z,79.42
2019-05-11T01:47:06.369Z,79.28
2019-05-11T01:48:06.375Z,78.81
2019-05-11T01:49:06.362Z,79.28
2019-05-11T01:50:06.396Z,79.32
2019-05-11T01:51:06.327Z,79.93
2019-05-11T01:52:06.336Z,79.42
2019-05-11T01:53:06.295Z,79.83
2019-05-11T01:54:06.295Z,80.14
2019-05-11T01:55:06.272Z,80.45
2019-05-11T01:56:06.272Z,80.38
2019-05-11T01:57:06.267Z,81.00
2019-05-11T01:58:06.272Z,81.00
2019-05-11T01:59:06.328Z,81.30
2019-05-11T02:00:06.240Z,81.00
2019-05-11T02:01:06.200Z,81.30
2019-05-11T02:02:06.201Z,81.41
2019-05-11T02:03:06.199Z,81.65
2019-05-11T02:04:06.175Z,81.71
2019-05-11T02:05:06.166Z,81.76
2019-05-11T02:06:06.179Z,81.96
2019-05-11T02:07:06.137Z,81.82
2019-05-11T02:08:06.147Z,81.82
2019-05-11T02:09:06.116Z,81.76
2019-05-11T02:10:06.139Z,82.17
2019-05-11T02:11:15.535Z,81.65
2019-05-11T02:12:07.091Z,81.65
2019-05-11T02:13:06.088Z,82.68
2019-05-11T02:14:06.070Z,81.45
2019-05-11T02:15:06.063Z,82.37
2019-05-11T02:16:06.043Z,82.47
2019-05-11T02:17:06.056Z,81.76
2019-05-11T02:18:06.204Z,82.47
2019-05-11T02:19:06.020Z,81.76
2019-05-11T02:20:05.997Z,82.37
2019-05-11T02:21:05.993Z,81.96
2019-05-11T02:22:05.992Z,82.27
2019-05-11T02:23:05.976Z,81.96
2019-05-11T02:24:05.953Z,81.86
2019-05-11T02:25:06.010Z,82.37
2019-05-11T02:26:05.974Z,82.17
2019-05-11T02:27:05.914Z,82.47
2019-05-11T02:28:05.907Z,82.37
2019-05-11T02:29:05.895Z,82.37
2019-05-11T02:30:05.886Z,82.47
2019-05-11T02:31:05.892Z,81.65
2019-05-11T02:32:05.912Z,82.57
2019-05-11T02:33:05.852Z,82.57
2019-05-11T02:34:05.867Z,82.68
2019-05-11T02:35:05.830Z,82.89
2019-05-11T02:36:05.835Z,82.57
2019-05-11T02:37:05.810Z,82.06
2019-05-11T02:38:05.790Z,81.76
2019-05-11T02:39:05.799Z,81.55
2019-05-11T02:40:05.790Z,81.86
2019-05-11T02:41:05.793Z,81.65
2019-05-11T02:42:05.777Z,81.86
2019-05-11T02:43:05.750Z,81.65
2019-05-11T02:44:05.729Z,82.06
2019-05-11T02:45:05.728Z,82.68
2019-05-11T02:46:05.707Z,81.86
2019-05-11T02:47:05.690Z,82.06
2019-05-11T02:48:05.683Z,81.65
2019-05-11T02:49:05.701Z,81.76
2019-05-11T02:50:05.661Z,82.78
2019-05-11T02:51:05.685Z,81.96
2019-05-11T02:52:05.630Z,82.78
2019-05-11T02:53:05.645Z,82.78
2019-05-11T02:54:05.618Z,82.47
2019-05-11T02:55:05.646Z,81.76
2019-05-11T02:56:05.600Z,81.76
2019-05-11T02:57:05.603Z,81.76
2019-05-11T02:58:05.571Z,81.55
2019-05-11T02:59:05.887Z,81.45
2019-05-11T03:00:05.587Z,81.55
2019-05-11T03:01:05.540Z,81.20
2019-05-11T03:02:05.538Z,81.51
2019-05-11T03:03:05.568Z,81.04
2019-05-11T03:04:05.513Z,81.24
2019-05-11T03:05:05.504Z,81.04
2019-05-11T03:06:05.488Z,81.04
2019-05-11T03:07:05.477Z,81.34
2019-05-11T03:08:05.478Z,81.34
2019-05-11T03:09:05.497Z,81.45
2019-05-11T03:10:05.442Z,80.83
2019-05-11T03:11:05.428Z,81.45
2019-05-11T03:12:05.416Z,81.04
2019-05-11T03:13:05.444Z,80.93
2019-05-11T03:14:05.406Z,80.93
2019-05-11T03:15:05.400Z,81.00
2019-05-11T03:16:05.379Z,80.90
2019-05-11T03:17:05.376Z,80.52
2019-05-11T03:18:05.385Z,80.58
2019-05-11T03:19:05.348Z,80.42
2019-05-11T03:20:05.329Z,80.28
2019-05-11T03:21:05.335Z,80.32
2019-05-11T03:22:05.311Z,80.38
2019-05-11T03:23:05.300Z,80.32
2019-05-11T03:24:05.291Z,80.58
2019-05-11T03:25:05.295Z,80.49
2019-05-11T03:26:05.271Z,80.79
2019-05-11T03:27:05.253Z,80.69
2019-05-11T03:28:05.270Z,80.58
2019-05-11T03:29:05.231Z,80.49
2019-05-11T03:30:05.235Z,80.38
2019-05-11T03:31:05.213Z,80.49
2019-05-11T03:32:05.195Z,80.69
2019-05-11T03:33:05.181Z,80.38
2019-05-11T03:34:05.199Z,80.58
2019-05-11T03:35:05.182Z,79.93
2019-05-11T03:36:05.162Z,80.14
2019-05-11T03:37:05.142Z,79.52
2019-05-11T03:38:05.145Z,80.04
2019-05-11T03:39:05.134Z,80.04
2019-05-11T03:40:05.302Z,79.93
2019-05-11T03:41:05.145Z,79.83
2019-05-11T03:42:14.539Z,79.18
2019-05-11T03:43:06.094Z,78.67
2019-05-11T03:44:05.079Z,78.67
2019-05-11T03:45:05.069Z,78.25
2019-05-11T03:46:05.045Z,77.54
2019-05-11T03:47:05.047Z,78.05
2019-05-11T03:48:05.020Z,78.32
2019-05-11T03:49:05.008Z,77.20
2019-05-11T03:50:05.019Z,76.95
2019-05-11T03:51:04.981Z,75.59
2019-05-11T03:52:04.978Z,75.14
2019-05-11T03:53:04.972Z,74.22
2019-05-11T03:54:05.100Z,74.73
2019-05-11T03:55:04.945Z,74.46
2019-05-11T03:56:04.954Z,74.87
2019-05-11T03:57:04.913Z,74.87
2019-05-11T03:58:04.929Z,74.66
2019-05-11T03:59:04.984Z,74.36
2019-05-11T04:00:04.939Z,73.85
2019-05-11T04:01:04.884Z,74.87
2019-05-11T04:02:04.905Z,74.77
2019-05-11T04:03:04.899Z,74.80
2019-05-11T04:04:04.850Z,75.01
2019-05-11T04:05:04.844Z,75.21
2019-05-11T04:06:04.816Z,75.21
2019-05-11T04:07:04.839Z,75.31
2019-05-11T04:08:04.877Z,75.11
2019-05-11T04:09:04.787Z,75.11
2019-05-11T04:10:04.790Z,75.11
2019-05-11T04:11:04.766Z,74.97
2019-05-11T04:12:04.754Z,75.01
2019-05-11T04:13:04.760Z,74.80
2019-05-11T04:14:04.743Z,74.15
2019-05-11T04:15:04.731Z,74.46
2019-05-11T04:16:04.705Z,74.77
2019-05-11T04:17:04.693Z,74.87
2019-05-11T04:18:04.749Z,74.80
2019-05-11T04:19:04.725Z,74.56
2019-05-11T04:20:04.661Z,74.66
2019-05-11T04:21:04.660Z,74.56
2019-05-11T04:22:04.681Z,75.18
2019-05-11T04:23:04.640Z,74.46
2019-05-11T04:24:04.620Z,74.46
2019-05-11T04:25:04.607Z,74.77
2019-05-11T04:26:04.600Z,74.36
2019-05-11T04:27:04.603Z,74.02
2019-05-11T04:28:04.566Z,74.11
2019-05-11T04:29:04.570Z,74.11
2019-05-11T04:30:04.550Z,73.30
2019-05-11T04:31:04.584Z,73.30
2019-05-11T04:32:04.540Z,73.20
2019-05-11T04:33:04.514Z,73.61
2019-05-11T04:34:04.508Z,74.02
2019-05-11T04:35:04.491Z,73.50
2019-05-11T04:36:04.496Z,72.89
2019-05-11T04:37:04.472Z,73.36
2019-05-11T04:38:04.473Z,73.68
2019-05-11T04:39:04.477Z,73.06
2019-05-11T04:40:04.438Z,73.13
2019-05-11T04:41:04.426Z,72.14
2019-05-11T04:42:04.419Z,71.83
2019-05-11T04:43:04.416Z,72.31
2019-05-11T04:44:04.405Z,71.39
2019-05-11T04:45:04.386Z,72.34
2019-05-11T04:46:04.383Z,71.53
2019-05-11T04:47:04.367Z,72.34
2019-05-11T04:48:04.370Z,72.14
2019-05-11T04:49:04.349Z,72.55
2019-05-11T04:50:04.325Z,72.24
2019-05-11T04:51:04.359Z,72.28
2019-05-11T04:52:04.332Z,72.38
2019-05-11T04:53:04.755Z,72.58
2019-05-11T04:54:04.605Z,73.40
2019-05-11T04:55:04.285Z,73.10
2019-05-11T04:56:04.268Z,72.96
2019-05-11T04:57:04.321Z,71.94
2019-05-11T04:58:04.278Z,72.45
2019-05-11T04:59:04.252Z,73.36
2019-05-11T05:00:04.227Z,71.83
2019-05-11T05:01:04.226Z,72.34
2019-05-11T05:02:04.307Z,72.00
2019-05-11T05:03:04.190Z,72.31
2019-05-11T05:04:13.987Z,71.90
2019-05-11T05:05:05.196Z,71.39
2019-05-11T05:06:22.304Z,71.46
2019-05-11T05:07:10.029Z,71.05
2019-05-11T05:08:09.816Z,70.37
2019-05-11T05:09:05.135Z,70.34
2019-05-11T05:10:04.112Z,69.93
2019-05-11T05:11:04.112Z,70.03
2019-05-11T05:12:08.442Z,70.13
2019-05-11T05:13:10.549Z,70.03
2019-05-11T05:14:08.323Z,70.20
2019-05-11T05:15:04.081Z,70.30
2019-05-11T05:16:04.043Z,69.79
2019-05-11T05:17:04.050Z,69.45
2019-05-11T05:18:04.047Z,68.94
2019-05-11T05:19:04.011Z,68.74
2019-05-11T05:20:04.001Z,68.91
2019-05-11T05:21:03.998Z,67.99
2019-05-11T05:22:03.980Z,67.68
2019-05-11T05:23:03.995Z,67.48
2019-05-11T05:24:03.954Z,67.85
2019-05-11T05:25:03.939Z,67.04
2019-05-11T05:26:03.931Z,66.60
2019-05-11T05:27:03.959Z,66.50
2019-05-11T05:28:03.912Z,66.30
2019-05-11T05:29:03.910Z,66.30
2019-05-11T05:30:03.956Z,66.16
2019-05-11T05:31:03.879Z,66.60
2019-05-11T05:32:03.940Z,66.47
2019-05-11T05:33:03.851Z,66.47
2019-05-11T05:34:03.848Z,65.65
2019-05-11T05:35:03.866Z,65.45
2019-05-11T05:36:03.819Z,65.45
2019-05-11T05:37:03.809Z,65.95
2019-05-11T05:38:03.815Z,66.36
2019-05-11T05:39:03.794Z,66.36
2019-05-11T05:40:03.791Z,66.16
2019-05-11T05:41:03.766Z,65.95
2019-05-11T05:42:03.768Z,65.62
2019-05-11T05:43:03.736Z,65.62
2019-05-11T05:44:03.740Z,65.69
2019-05-11T05:45:03.822Z,64.98
2019-05-11T05:46:03.747Z,65.08
2019-05-11T05:47:03.695Z,64.54
2019-05-11T05:48:03.695Z,63.73
2019-05-11T05:49:03.691Z,64.06
2019-05-11T05:50:03.662Z,64.57
2019-05-11T05:51:03.647Z,64.26
2019-05-11T05:52:03.757Z,64.50
2019-05-11T05:53:03.627Z,64.29
2019-05-11T05:54:03.610Z,64.09
2019-05-11T05:55:03.607Z,64.32
2019-05-11T05:56:03.625Z,64.53
2019-05-11T05:57:03.594Z,64.73
2019-05-11T05:58:03.573Z,65.34
2019-05-11T05:59:03.568Z,65.25
2019-05-11T06:00:03.589Z,65.55
2019-05-11T06:01:03.550Z,64.63
2019-05-11T06:02:03.546Z,64.32
2019-05-11T06:03:03.721Z,63.89
2019-05-11T06:04:03.499Z,63.68
2019-05-11T06:05:03.491Z,63.79
2019-05-11T06:06:03.522Z,63.89
2019-05-11T06:07:03.482Z,63.38
2019-05-11T06:08:03.482Z,63.45
2019-05-11T06:09:03.443Z,63.35
2019-05-11T06:10:03.431Z,62.10
2019-05-11T06:11:03.421Z,61.90
2019-05-11T06:12:03.446Z,61.76
2019-05-11T06:13:03.415Z,61.63
2019-05-11T06:14:03.525Z,60.00
2019-05-11T06:15:03.376Z,59.19
2019-05-11T06:16:03.359Z,59.09
2019-05-11T06:17:03.373Z,59.60
2019-05-11T06:18:03.351Z,60.00
2019-05-11T06:19:03.345Z,59.91
2019-05-11T06:20:04.076Z,59.19
2019-05-11T06:21:03.314Z,58.96
2019-05-11T06:22:03.300Z,58.04
2019-05-11T06:23:03.290Z,57.13
2019-05-11T06:24:06.578Z,56.52
2019-05-11T06:25:03.284Z,57.06
2019-05-11T06:26:03.263Z,56.68
2019-05-11T06:27:03.302Z,56.88
2019-05-11T06:28:03.234Z,56.93
2019-05-11T06:29:03.233Z,57.44
2019-05-11T06:30:03.249Z,58.15
2019-05-11T06:31:03.246Z,58.15
2019-05-11T06:32:03.186Z,58.80
2019-05-11T06:33:03.209Z,58.08
2019-05-11T06:34:03.207Z,58.36
2019-05-11T06:35:03.192Z,58.15
2019-05-11T06:36:03.155Z,58.05
2019-05-11T06:37:03.163Z,58.23
2019-05-11T06:38:03.121Z,57.54
2019-05-11T06:39:03.113Z,57.85
2019-05-11T06:40:03.104Z,57.34
2019-05-11T06:41:03.093Z,57.54
2019-05-11T06:42:03.116Z,58.39
2019-05-11T06:43:03.124Z,59.41
2019-05-11T06:44:03.216Z,59.41
2019-05-11T06:45:03.052Z,59.30
2019-05-11T06:46:03.047Z,59.12
2019-05-11T06:47:03.050Z,59.23
2019-05-11T06:48:03.015Z,59.43
2019-05-11T06:49:03.107Z,59.51
2019-05-11T06:50:02.984Z,59.41
2019-05-11T06:51:02.973Z,59.20
2019-05-11T06:52:02.994Z,58.28
2019-05-11T06:53:02.967Z,57.95
2019-05-11T06:54:03.401Z,57.37
2019-05-11T06:55:02.922Z,58.05
2019-05-11T06:56:02.922Z,58.08
2019-05-11T06:57:02.910Z,58.59
2019-05-11T06:58:03.033Z,59.12
2019-05-11T06:59:02.874Z,59.43
2019-05-11T07:00:02.930Z,59.61
2019-05-11T07:01:02.854Z,59.61
2019-05-11T07:02:02.883Z,58.87
2019-05-11T07:03:02.897Z,59.48
2019-05-11T07:04:02.834Z,58.76
2019-05-11T07:05:02.808Z,58.33
2019-05-11T07:06:03.418Z,57.62
2019-05-11T07:07:02.884Z,57.59
2019-05-11T07:08:02.796Z,57.69
2019-05-11T07:09:02.791Z,57.08
2019-05-11T07:10:03.114Z,56.47
2019-05-11T07:11:02.889Z,57.42
2019-05-11T07:12:02.986Z,57.11
2019-05-11T07:13:02.765Z,57.42
2019-05-11T07:14:19.149Z,57.11
2019-05-11T07:15:03.704Z,57.21
2019-05-11T07:16:02.685Z,56.47
2019-05-11T07:17:02.693Z,56.68
2019-05-11T07:18:02.665Z,56.88
2019-05-11T07:19:03.307Z,56.55
2019-05-11T07:20:03.643Z,55.51
2019-05-11T07:21:02.806Z,55.51
2019-05-11T07:22:02.616Z,54.26
2019-05-11T07:23:02.609Z,54.05
2019-05-11T07:24:02.675Z,54.13
2019-05-11T07:25:02.587Z,52.84
2019-05-11T07:26:02.577Z,52.94
2019-05-11T07:27:02.575Z,53.02
2019-05-11T07:28:02.629Z,52.91
2019-05-11T07:29:03.385Z,53.22
2019-05-11T07:30:02.535Z,53.45
2019-05-11T07:31:02.519Z,53.04
2019-05-11T07:32:12.244Z,53.34
2019-05-11T07:33:03.496Z,53.12
2019-05-11T07:34:02.499Z,53.22
2019-05-11T07:35:03.401Z,53.09
2019-05-11T07:36:02.462Z,51.57
2019-05-11T07:37:02.466Z,51.59
2019-05-11T07:38:02.468Z,51.70
2019-05-11T07:39:02.436Z,52.73
2019-05-11T07:40:02.422Z,52.33
2019-05-11T07:41:02.420Z,53.17
2019-05-11T07:42:02.401Z,52.96
2019-05-11T07:43:05.950Z,52.66
2019-05-11T07:44:02.372Z,53.39
2019-05-11T07:45:02.368Z,53.90
2019-05-11T07:46:02.685Z,54.11
2019-05-11T07:47:02.339Z,54.21
2019-05-11T07:48:02.333Z,52.98
2019-05-11T07:49:02.450Z,53.32
2019-05-11T07:50:02.419Z,53.70
2019-05-11T07:51:02.353Z,53.63
2019-05-11T07:52:02.297Z,53.22
2019-05-11T07:53:02.273Z,53.63
2019-05-11T07:54:02.275Z,54.13
2019-05-11T07:55:02.301Z,53.93
2019-05-11T07:56:02.243Z,54.03
2019-05-11T07:57:02.232Z,53.39
2019-05-11T07:58:02.251Z,53.50
2019-05-11T07:59:02.209Z,52.71
2019-05-11T08:00:02.205Z,53.50
2019-05-11T08:01:02.183Z,53.39
2019-05-11T08:02:02.232Z,52.78
2019-05-11T08:03:02.164Z,51.67
2019-05-11T08:04:02.189Z,51.46
2019-05-11T08:05:02.206Z,52.08
2019-05-11T08:06:02.907Z,51.67
2019-05-11T08:07:02.118Z,51.36
2019-05-11T08:08:02.126Z,51.67
2019-05-11T08:09:02.131Z,51.36
2019-05-11T08:10:02.090Z,52.05
2019-05-11T08:11:02.128Z,51.64
2019-05-11T08:12:02.218Z,51.42
2019-05-11T08:13:02.111Z,49.89
2019-05-11T08:14:02.048Z,50.70
2019-05-11T08:15:09.045Z,50.70
2019-05-11T08:16:03.037Z,50.40
2019-05-11T08:17:02.017Z,50.60
2019-05-11T08:18:02.079Z,50.70
2019-05-11T08:19:01.992Z,49.18
2019-05-11T08:20:01.972Z,50.27
2019-05-11T08:21:01.962Z,49.46
2019-05-11T08:22:01.959Z,49.69
2019-05-11T08:23:02.038Z,50.20
2019-05-11T08:24:01.931Z,49.79
2019-05-11T08:25:01.942Z,50.81
2019-05-11T08:26:01.926Z,49.28
2019-05-11T08:27:01.921Z,49.36
2019-05-11T08:28:01.902Z,50.09
2019-05-11T08:29:01.918Z,49.05
2019-05-11T08:30:01.872Z,50.48
2019-05-11T08:31:01.893Z,49.26
2019-05-11T08:32:01.844Z,49.26
2019-05-11T08:33:01.839Z,48.44
2019-05-11T08:34:01.836Z,48.65
2019-05-11T08:35:01.808Z,48.67
2019-05-11T08:36:01.796Z,48.95
2019-05-11T08:37:01.788Z,48.47
2019-05-11T08:38:01.775Z,49.00
2019-05-11T08:39:01.787Z,48.80
2019-05-11T08:40:01.745Z,49.48
2019-05-11T08:41:01.746Z,49.18
2019-05-11T08:42:03.345Z,49.66
2019-05-11T08:43:01.733Z,50.17
2019-05-11T08:44:01.706Z,48.42
2019-05-11T08:45:16.002Z,48.44
2019-05-11T08:46:02.745Z,47.83
2019-05-11T08:47:01.670Z,47.33
2019-05-11T08:48:01.662Z,46.92
2019-05-11T08:49:01.654Z,47.53
2019-05-11T08:50:01.648Z,47.43
2019-05-11T08:51:01.640Z,48.34
2019-05-11T08:52:01.627Z,48.24
2019-05-11T08:53:01.608Z,47.20
2019-05-11T08:54:01.598Z,47.20
2019-05-11T08:55:01.589Z,47.20
2019-05-11T08:56:01.587Z,47.30
2019-05-11T08:57:01.567Z,47.41
2019-05-11T08:58:01.618Z,47.00
2019-05-11T08:59:01.563Z,47.59
2019-05-11T09:00:02.354Z,46.47
2019-05-11T09:01:01.555Z,47.28
2019-05-11T09:02:01.524Z,46.37
2019-05-11T09:03:01.501Z,46.27
2019-05-11T09:04:01.480Z,46.06
2019-05-11T09:05:01.476Z,45.97
2019-05-11T09:06:01.467Z,45.76
2019-05-11T09:07:01.479Z,45.76
2019-05-11T09:08:01.483Z,47.08
2019-05-11T09:09:01.429Z,46.78
2019-05-11T09:10:01.413Z,47.59
2019-05-11T09:11:01.785Z,46.14
2019-05-11T09:12:02.752Z,45.23
2019-05-11T09:13:01.445Z,44.73
2019-05-11T09:14:01.458Z,45.54
2019-05-11T09:15:01.361Z,45.15
2019-05-11T09:16:01.345Z,45.36
2019-05-11T09:17:01.373Z,45.74
2019-05-11T09:18:01.350Z,45.74
2019-05-11T09:19:01.343Z,45.23
2019-05-11T09:20:01.313Z,46.12
2019-05-11T09:21:01.293Z,45.92
2019-05-11T09:22:03.281Z,45.09
2019-05-11T09:23:01.283Z,45.19
2019-05-11T09:24:01.377Z,44.46
2019-05-11T09:25:01.431Z,44.46
2019-05-11T09:26:01.239Z,44.76
2019-05-11T09:27:01.231Z,44.15
2019-05-11T09:28:01.241Z,44.24
2019-05-11T09:29:01.209Z,44.44
2019-05-11T09:30:01.253Z,45.04
2019-05-11T09:31:01.185Z,43.08
2019-05-11T09:32:01.171Z,43.49
2019-05-11T09:33:01.159Z,43.46
2019-05-11T09:34:01.150Z,42.55
2019-05-11T09:35:01.144Z,42.76
2019-05-11T09:36:01.138Z,43.04
2019-05-11T09:37:01.125Z,42.23
2019-05-11T09:38:01.102Z,41.61
2019-05-11T09:39:01.097Z,41.30
2019-05-11T09:40:01.079Z,41.20
2019-05-11T09:41:01.098Z,40.48
2019-05-11T09:42:01.065Z,40.08
2019-05-11T09:43:01.059Z,40.30
2019-05-11T09:44:01.036Z,40.82
2019-05-11T09:45:01.059Z,42.33
2019-05-11T09:46:01.016Z,42.84
2019-05-11T09:47:02.690Z,42.72
2019-05-11T09:48:01.012Z,41.28
2019-05-11T09:49:00.981Z,40.98
2019-05-11T09:50:00.978Z,40.76
2019-05-11T09:51:00.958Z,41.25
2019-05-11T09:52:00.955Z,40.01
2019-05-11T09:53:00.954Z,38.73
2019-05-11T09:54:00.924Z,39.45
2019-05-11T09:55:00.918Z,40.78
2019-05-11T09:56:00.908Z,40.48
2019-05-11T09:57:00.900Z,40.82
2019-05-11T09:58:00.896Z,41.02
2019-05-11T09:59:00.874Z,41.73
2019-05-11T10:00:00.860Z,40.82
2019-05-11T10:01:00.960Z,41.12
2019-05-11T10:02:00.836Z,41.04
2019-05-11T10:03:00.830Z,41.44
2019-05-11T10:04:00.828Z,41.14
2019-05-11T10:05:00.812Z,41.44
2019-05-11T10:06:00.794Z,41.44
2019-05-11T10:07:00.777Z,42.64
2019-05-11T10:08:00.766Z,41.73
2019-05-11T10:09:00.773Z,41.64
2019-05-11T10:10:00.779Z,41.75
2019-05-11T10:11:00.795Z,41.44
2019-05-11T10:12:00.721Z,41.22
2019-05-11T10:13:00.722Z,41.22
2019-05-11T10:14:00.749Z,42.43
2019-05-11T10:15:00.702Z,41.61
2019-05-11T10:16:06.767Z,41.50
2019-05-11T10:17:01.682Z,40.28
2019-05-11T10:18:00.662Z,39.67
2019-05-11T10:19:00.645Z,40.17
2019-05-11T10:20:00.658Z,40.50
2019-05-11T10:21:00.647Z,40.68
2019-05-11T10:22:00.608Z,40.28
2019-05-11T10:23:00.598Z,40.16
2019-05-11T10:24:00.633Z,39.65
2019-05-11T10:25:00.582Z,40.25
2019-05-11T10:26:00.581Z,40.16
2019-05-11T10:27:00.763Z,40.36
2019-05-11T10:28:00.544Z,39.43
2019-05-11T10:29:00.536Z,39.83
2019-05-11T10:30:00.521Z,39.13
2019-05-11T10:31:00.522Z,39.13
2019-05-11T10:32:00.539Z,40.42
2019-05-11T10:33:00.531Z,39.01
2019-05-11T10:34:00.480Z,39.31
2019-05-11T10:35:00.466Z,39.21
2019-05-11T10:36:03.102Z,39.01
2019-05-11T10:37:00.451Z,39.19
2019-05-11T10:38:00.455Z,39.09
2019-05-11T10:39:00.485Z,38.18
2019-05-11T10:40:00.480Z,39.79
2019-05-11T10:41:00.427Z,38.28
2019-05-11T10:42:00.396Z,38.89
2019-05-11T10:43:00.396Z,38.59
2019-05-11T10:44:00.365Z,38.79
2019-05-11T10:45:00.357Z,38.07
2019-05-11T10:46:15.671Z,38.47
2019-05-11T10:47:01.359Z,38.37
2019-05-11T10:48:01.113Z,38.37
2019-05-11T10:49:00.322Z,38.65
2019-05-11T10:50:00.355Z,38.55
2019-05-11T10:51:00.476Z,37.24
2019-05-11T10:52:00.341Z,37.85
2019-05-11T10:53:00.264Z,38.65
2019-05-11T10:54:00.280Z,37.65
2019-05-11T10:55:00.243Z,38.25
2019-05-11T10:56:00.235Z,38.77
2019-05-11T10:57:00.217Z,38.27
2019-05-11T10:58:00.651Z,38.55
2019-05-11T10:59:00.197Z,38.87
2019-05-11T11:00:00.206Z,37.87
2019-05-11T11:01:00.178Z,38.27
2019-05-11T11:02:00.222Z,38.27
2019-05-11T11:03:00.156Z,38.77
2019-05-11T11:04:00.142Z,38.57
2019-05-11T11:05:00.133Z,38.79
2019-05-11T11:06:00.140Z,39.63
2019-05-11T11:07:00.113Z,39.55
2019-05-11T11:08:00.119Z,40.66
2019-05-11T11:09:00.085Z,41.28
2019-05-11T11:10:00.103Z,40.96
2019-05-11T11:11:00.066Z,40.96
2019-05-11T11:12:00.050Z,40.96
2019-05-11T11:13:00.045Z,40.74
2019-05-11T11:14:00.054Z,40.14
2019-05-11T11:15:00.039Z,39.92
2019-05-11T11:16:02.035Z,39.59
2019-05-11T11:17:00.018Z,38.99
2019-05-11T11:17:59.988Z,39.21
2019-05-11T11:18:59.978Z,38.79
2019-05-11T11:19:59.966Z,39.59
2019-05-11T11:20:59.960Z,38.77
2019-05-11T11:22:28.424Z,39.19
2019-05-11T11:23:00.944Z,38.89
2019-05-11T11:23:59.916Z,39.01
2019-05-11T11:24:59.912Z,39.01
2019-05-11T11:25:59.907Z,40.14
2019-05-11T11:26:59.956Z,40.05
2019-05-11T11:27:59.950Z,41.16
2019-05-11T11:28:59.964Z,40.86
2019-05-11T11:29:59.850Z,40.25
2019-05-11T11:30:59.859Z,40.84
2019-05-11T11:31:59.966Z,40.74
2019-05-11T11:32:59.924Z,39.73
2019-05-11T11:33:59.854Z,40.64
2019-05-11T11:34:59.883Z,41.06
2019-05-11T11:35:59.794Z,42.52
2019-05-11T11:36:59.789Z,42.21
2019-05-11T11:37:59.813Z,42.54
2019-05-11T11:38:59.755Z,43.04
2019-05-11T11:39:59.768Z,43.04
2019-05-11T11:40:59.750Z,42.52
2019-05-11T11:41:59.723Z,42.41
2019-05-11T11:42:59.726Z,42.82
2019-05-11T11:43:59.700Z,42.09
2019-05-11T11:44:59.703Z,42.80
2019-05-11T11:45:59.679Z,42.40
2019-05-11T11:46:59.706Z,42.11
2019-05-11T11:47:59.655Z,42.52
2019-05-11T11:48:59.690Z,43.55
2019-05-11T11:49:59.640Z,43.97
2019-05-11T11:50:59.652Z,43.87
2019-05-11T11:51:59.609Z,44.35
2019-05-11T11:52:59.605Z,43.95
2019-05-11T11:53:59.592Z,44.35
2019-05-11T11:54:59.572Z,43.23
2019-05-11T11:55:59.598Z,43.12
2019-05-11T11:56:59.555Z,43.32
2019-05-11T11:57:59.537Z,42.90
2019-05-11T11:58:59.528Z,42.40
2019-05-11T11:59:59.517Z,43.32
2019-05-11T12:00:59.559Z,43.97
2019-05-11T12:01:59.508Z,44.37
2019-05-11T12:02:59.487Z,44.88
2019-05-11T12:03:59.471Z,44.80
2019-05-11T12:04:59.463Z,45.41
2019-05-11T12:05:59.463Z,45.10
2019-05-11T12:06:59.463Z,45.41
2019-05-11T12:07:59.434Z,44.92
2019-05-11T12:08:59.415Z,45.73
2019-05-11T12:10:00.339Z,45.53
2019-05-11T12:11:00.338Z,45.83
2019-05-11T12:11:59.383Z,45.83
2019-05-11T12:12:59.407Z,46.04
2019-05-11T12:13:59.357Z,49.17
2019-05-11T12:14:59.369Z,53.85
2019-05-11T12:15:59.333Z,57.12
2019-05-11T12:17:07.436Z,57.42
2019-05-11T12:18:00.338Z,56.74
2019-05-11T12:18:59.358Z,60.21
2019-05-11T12:19:59.298Z,57.37
2019-05-11T12:20:59.283Z,59.63
2019-05-11T12:21:59.343Z,58.52
2019-05-11T12:22:59.275Z,59.97
2019-05-11T12:23:59.270Z,61.29
2019-05-11T12:24:59.248Z,63.82
2019-05-11T12:25:59.219Z,59.79
2019-05-11T12:26:59.200Z,58.14
2019-05-11T12:27:59.190Z,59.39
2019-05-11T12:28:59.192Z,59.69
2019-05-11T12:29:59.209Z,59.28
2019-05-11T12:30:59.200Z,59.01
2019-05-11T12:31:59.171Z,61.32
2019-05-11T12:32:59.147Z,59.92
2019-05-11T12:33:59.132Z,62.53
2019-05-11T12:34:59.130Z,63.85
2019-05-11T12:35:59.112Z,59.69
2019-05-11T12:36:59.104Z,58.98
2019-05-11T12:37:59.095Z,56.95
2019-05-11T12:38:59.112Z,55.63
2019-05-11T12:39:59.074Z,56.13
2019-05-11T12:40:59.054Z,56.74
2019-05-11T12:41:59.044Z,58.20
2019-05-11T12:42:59.234Z,59.14
2019-05-11T12:43:59.020Z,58.53
2019-05-11T12:44:59.010Z,60.05
2019-05-11T12:45:59.002Z,59.98
2019-05-11T12:46:59.012Z,61.40
2019-05-11T12:47:58.979Z,61.30
2019-05-11T12:48:59.229Z,61.30
2019-05-11T12:49:58.952Z,60.49
2019-05-11T12:50:58.947Z,61.43
2019-05-11T12:51:58.955Z,61.94